createdAt,value
2022-10-25T00:02:39.232Z,0
2022-10-25T00:07:39.149Z,0
2022-10-25T00:17:39.194Z,0
2022-10-25T00:22:39.175Z,0
2022-10-25T00:27:39.181Z,0
2022-10-25T00:32:39.212Z,0
2022-10-25T00:37:39.215Z,0
2022-10-25T00:42:39.154Z,0
2022-10-25T00:47:39.170Z,0
2022-10-25T00:52:39.204Z,0
2022-10-25T00:57:39.132Z,0
2022-10-25T01:02:39.274Z,0
2022-10-25T01:07:39.148Z,0
2022-10-25T01:12:39.197Z,0
2022-10-25T01:17:39.138Z,0
2022-10-25T01:22:39.159Z,0
2022-10-25T01:27:39.161Z,0
2022-10-25T01:32:39.206Z,0
2022-10-25T01:37:39.126Z,0
2022-10-25T01:42:39.133Z,0
2022-10-25T01:47:39.129Z,0
2022-10-25T01:52:39.182Z,0
2022-10-25T01:57:39.152Z,0
2022-10-25T02:02:39.134Z,0
2022-10-25T02:07:39.155Z,0
2022-10-25T02:12:39.162Z,0
2022-10-25T02:17:39.121Z,0
2022-10-25T02:22:39.127Z,0
2022-10-25T02:27:39.147Z,0
2022-10-25T02:32:39.152Z,0
2022-10-25T02:37:39.135Z,0
2022-10-25T02:42:39.141Z,0
2022-10-25T02:47:39.141Z,0
2022-10-25T02:52:39.152Z,0
2022-10-25T02:57:39.134Z,0
2022-10-25T03:02:39.141Z,0
2022-10-25T03:07:39.117Z,0
2022-10-25T03:12:39.133Z,0
2022-10-25T03:17:39.112Z,0
2022-10-25T03:22:39.150Z,0
2022-10-25T03:27:39.122Z,0
2022-10-25T03:32:39.167Z,0
2022-10-25T03:37:39.121Z,0
2022-10-25T03:42:39.110Z,0
2022-10-25T03:47:39.132Z,0
2022-10-25T03:52:39.162Z,0
2022-10-25T03:57:39.126Z,0
2022-10-25T04:02:39.107Z,0
2022-10-25T04:07:39.134Z,0
2022-10-25T04:12:39.164Z,0
2022-10-25T04:17:39.125Z,0
2022-10-25T04:22:39.118Z,0
2022-10-25T04:27:39.124Z,0
2022-10-25T04:32:39.121Z,0
2022-10-25T04:37:39.119Z,0
2022-10-25T04:42:39.121Z,0
2022-10-25T04:47:39.087Z,0
2022-10-25T04:52:39.130Z,0
2022-10-25T04:57:39.107Z,0
2022-10-25T05:02:39.372Z,0
2022-10-25T05:07:39.359Z,0
2022-10-25T05:12:39.398Z,0
2022-10-25T05:17:39.365Z,0
2022-10-25T05:22:39.358Z,0
2022-10-25T05:27:39.369Z,0
2022-10-25T05:32:39.356Z,0
2022-10-25T05:37:39.311Z,0
2022-10-25T05:42:39.355Z,0
2022-10-25T05:47:39.332Z,0
2022-10-25T05:52:39.396Z,0
2022-10-25T05:57:39.365Z,0
2022-10-25T06:02:39.351Z,0
2022-10-25T06:07:39.572Z,0
2022-10-25T06:12:39.653Z,0
2022-10-25T06:17:39.570Z,0
2022-10-25T06:22:39.600Z,3
2022-10-25T06:27:39.562Z,2
2022-10-25T06:32:39.626Z,4
2022-10-25T06:37:39.587Z,6
2022-10-25T06:42:39.588Z,8
2022-10-25T06:47:39.592Z,9
2022-10-25T06:52:39.588Z,11
2022-10-25T06:57:39.584Z,8
2022-10-25T07:02:39.565Z,11
2022-10-25T07:07:39.579Z,11
2022-10-25T07:12:39.600Z,12
2022-10-25T07:17:39.578Z,13
2022-10-25T07:22:39.587Z,27
2022-10-25T07:27:39.593Z,42
2022-10-25T07:32:41.385Z,17
2022-10-25T07:37:39.559Z,45
2022-10-25T07:42:39.568Z,54
2022-10-25T07:47:39.551Z,51
2022-10-25T07:52:39.543Z,59
2022-10-25T07:57:39.592Z,61
2022-10-25T08:02:39.588Z,56
2022-10-25T08:07:39.585Z,64
2022-10-25T08:12:39.602Z,43
2022-10-25T08:17:39.543Z,52
2022-10-25T08:22:39.566Z,72
2022-10-25T08:27:39.824Z,119
2022-10-25T08:32:39.855Z,123
2022-10-25T08:37:39.832Z,231
2022-10-25T08:42:39.828Z,80
2022-10-25T08:47:39.812Z,75
2022-10-25T08:52:39.819Z,110
2022-10-25T08:57:39.792Z,128
2022-10-25T09:02:39.802Z,127
2022-10-25T09:07:40.730Z,187
2022-10-25T09:12:39.835Z,455
2022-10-25T09:17:39.805Z,628
2022-10-25T09:22:39.797Z,283
2022-10-25T09:27:39.794Z,558
2022-10-25T09:32:39.855Z,372
2022-10-25T09:37:39.814Z,89
2022-10-25T09:42:40.704Z,208
2022-10-25T09:47:40.681Z,84
2022-10-25T09:52:40.710Z,139
2022-10-25T09:57:40.933Z,468
2022-10-25T10:02:41.026Z,224
2022-10-25T10:07:40.948Z,228
2022-10-25T10:12:40.974Z,104
2022-10-25T10:17:40.907Z,111
2022-10-25T10:22:40.952Z,249
2022-10-25T10:27:40.894Z,174
2022-10-25T10:37:40.915Z,125
2022-10-25T10:42:46.220Z,103
2022-10-25T10:47:45.940Z,169
2022-10-25T10:52:46.215Z,167
2022-10-25T10:57:45.894Z,155
2022-10-25T11:02:46.315Z,176
2022-10-25T11:07:46.201Z,268
2022-10-25T11:12:45.996Z,398
2022-10-25T11:17:46.354Z,547
2022-10-25T11:27:46.283Z,319
2022-10-25T11:32:46.476Z,324
2022-10-25T11:37:46.133Z,200
2022-10-25T11:42:46.236Z,171
2022-10-25T11:47:46.017Z,550
2022-10-25T11:52:46.098Z,652
2022-10-25T11:57:45.934Z,231
2022-10-25T12:02:46.209Z,755
2022-10-25T12:07:46.023Z,211
2022-10-25T12:12:46.315Z,196
2022-10-25T12:17:45.901Z,276
2022-10-25T12:22:46.305Z,291
2022-10-25T12:27:46.070Z,291
2022-10-25T12:32:46.172Z,236
2022-10-25T12:37:47.416Z,424
2022-10-25T12:42:46.131Z,69
2022-10-25T12:47:46.049Z,100
2022-10-25T12:52:46.118Z,120
2022-10-25T12:57:47.497Z,185
2022-10-25T13:02:46.192Z,201
2022-10-25T13:07:45.998Z,171
2022-10-25T13:12:46.340Z,111
2022-10-25T13:17:45.901Z,105
2022-10-25T13:22:45.906Z,447
2022-10-25T13:27:46.016Z,405
2022-10-25T13:32:46.113Z,437
2022-10-25T13:37:46.103Z,423
2022-10-25T13:42:46.130Z,415
2022-10-25T13:47:46.025Z,365
2022-10-25T13:52:46.051Z,373
2022-10-25T13:57:45.910Z,193
2022-10-25T14:02:46.132Z,210
2022-10-25T14:07:45.945Z,129
2022-10-25T14:12:46.170Z,132
2022-10-25T14:17:45.886Z,136
2022-10-25T14:22:46.238Z,68
2022-10-25T14:27:45.925Z,101
2022-10-25T14:32:46.269Z,126
2022-10-25T14:37:45.911Z,53
2022-10-25T14:42:46.222Z,38
2022-10-25T14:47:45.918Z,40
2022-10-25T14:52:46.199Z,35
2022-10-25T14:57:45.852Z,26
2022-10-25T15:02:46.127Z,24
2022-10-25T15:07:45.890Z,19
2022-10-25T15:12:46.155Z,12
2022-10-25T15:17:46.161Z,10
2022-10-25T15:22:46.558Z,12
2022-10-25T15:27:46.182Z,9
2022-10-25T15:32:46.392Z,11
2022-10-25T15:37:46.084Z,9
2022-10-25T15:42:46.358Z,12
2022-10-25T15:47:46.165Z,14
2022-10-25T15:52:46.370Z,14
2022-10-25T15:57:46.140Z,6
2022-10-25T16:02:46.495Z,2
2022-10-25T16:07:46.163Z,1
2022-10-25T16:12:46.452Z,0
2022-10-25T16:17:46.114Z,0
2022-10-25T16:22:46.447Z,0
2022-10-25T16:27:46.168Z,0
2022-10-25T16:32:46.305Z,0
2022-10-25T16:37:46.460Z,0
2022-10-25T16:42:46.396Z,0
2022-10-25T16:47:46.179Z,0
2022-10-25T16:52:46.382Z,0
2022-10-25T16:57:46.107Z,0
2022-10-25T17:02:46.411Z,0
2022-10-25T17:07:46.182Z,0
2022-10-25T17:12:46.379Z,0
2022-10-25T17:17:46.391Z,0
2022-10-25T17:22:46.113Z,0
2022-10-25T17:27:46.440Z,0
2022-10-25T17:32:46.108Z,0
2022-10-25T17:37:46.316Z,0
2022-10-25T17:42:46.128Z,0
2022-10-25T17:47:46.499Z,0
2022-10-25T17:52:46.110Z,0
2022-10-25T17:57:46.299Z,0
2022-10-25T18:02:46.108Z,0
2022-10-25T18:07:46.327Z,0
2022-10-25T18:12:46.421Z,0
2022-10-25T18:17:46.565Z,0
2022-10-25T18:22:46.115Z,0
2022-10-25T18:27:46.403Z,0
2022-10-25T18:32:46.100Z,0
2022-10-25T18:37:46.424Z,0
2022-10-25T18:42:46.100Z,0
2022-10-25T18:47:46.384Z,0
2022-10-25T18:52:46.124Z,0
2022-10-25T18:57:46.365Z,0
2022-10-25T19:02:46.158Z,0
2022-10-25T19:07:46.412Z,0
2022-10-25T19:12:46.110Z,0
2022-10-25T19:17:46.225Z,0
2022-10-25T19:22:46.096Z,0
2022-10-25T19:27:46.385Z,0
2022-10-25T19:32:46.113Z,0
2022-10-25T19:37:46.297Z,0
2022-10-25T19:42:46.070Z,0
2022-10-25T19:47:46.347Z,0
2022-10-25T19:52:46.112Z,0
2022-10-25T19:57:46.316Z,0
2022-10-25T20:02:46.069Z,0
2022-10-25T20:07:46.416Z,0
2022-10-25T20:12:46.100Z,0
2022-10-25T20:17:46.342Z,0
2022-10-25T20:22:46.059Z,0
2022-10-25T20:27:46.402Z,0
2022-10-25T20:32:46.079Z,0
2022-10-25T20:37:46.321Z,0
2022-10-25T20:42:46.085Z,0
2022-10-25T20:47:46.363Z,0
2022-10-25T20:52:52.765Z,0
2022-10-25T20:57:46.300Z,0
2022-10-25T21:02:46.050Z,0
2022-10-25T21:07:46.402Z,0
2022-10-25T21:12:46.074Z,0
2022-10-25T21:17:46.308Z,0
2022-10-25T21:22:46.048Z,0
2022-10-25T21:27:46.353Z,0
2022-10-25T21:32:46.056Z,0
2022-10-25T21:37:48.274Z,0
2022-10-25T21:42:46.063Z,0
2022-10-25T21:47:46.328Z,0
2022-10-25T21:52:46.065Z,0
2022-10-25T21:57:48.189Z,0
2022-10-25T22:02:46.058Z,0
2022-10-25T22:07:46.363Z,0
2022-10-25T22:12:46.294Z,0
2022-10-25T22:17:46.044Z,0
2022-10-25T22:22:46.209Z,0
2022-10-25T22:27:46.063Z,0
2022-10-25T22:32:46.267Z,0
2022-10-25T22:37:46.226Z,0
2022-10-25T22:42:46.059Z,0
2022-10-25T22:47:46.207Z,0
2022-10-25T22:52:46.072Z,0
2022-10-25T22:57:46.361Z,0
2022-10-25T23:02:46.331Z,0
2022-10-25T23:07:46.083Z,0
2022-10-25T23:12:46.240Z,0
2022-10-25T23:22:46.209Z,0
2022-10-25T23:27:46.175Z,0
2022-10-25T23:32:46.025Z,0
2022-10-25T23:37:46.225Z,0
2022-10-25T23:42:46.022Z,0
2022-10-25T23:47:46.197Z,0
2022-10-25T23:52:46.238Z,0
2022-10-25T23:57:46.016Z,0
